Time;durP1;ratioP1;P1;durP2;ratioP2;P2;SDS_P1;SDS_P2;PMS_P1;PMS_P2;Temp;Humidity;BMP_temperature;BMP_pressure;BME280_temperature;BME280_humidity;BME280_pressure;Samples;Min_cycle;Max_cycle;Signal;HPM_P1;HPM_P2
2021/06/29 00:02:00;;;;;;;3.77;2.03;;;;;;;;;;5114625;27;24553;-73
2021/06/29 00:04:53;;;;;;;3.00;1.80;;;;;;;;;;5194229;27;25116;-73
2021/06/29 00:07:47;;;;;;;2.67;1.90;;;;;;;;;;5172333;27;24572;-73
2021/06/29 00:10:42;;;;;;;2.30;1.93;;;;;;;;;;5193675;27;24619;-73
2021/06/29 00:13:35;;;;;;;3.07;2.03;;;;;;;;;;5120142;27;24546;-73
2021/06/29 00:16:37;;;;;;;4.13;2.27;;;;;;;;;;5133930;27;24675;-73
2021/06/29 00:19:30;;;;;;;4.87;2.37;;;;;;;;;;5120277;27;24566;-72
2021/06/29 00:22:23;;;;;;;2.70;2.10;;;;;;;;;;5188888;27;25140;-73
2021/06/29 00:25:18;;;;;;;4.60;2.07;;;;;;;;;;5190865;27;25131;-73
2021/06/29 00:28:20;;;;;;;5.10;2.07;;;;;;;;;;5120279;27;24601;-74
2021/06/29 00:31:15;;;;;;;2.60;1.83;;;;;;;;;;5194190;27;24540;-73
2021/06/29 00:34:10;;;;;;;5.37;2.23;;;;;;;;;;5193402;27;24559;-74
2021/06/29 00:37:04;;;;;;;3.50;2.17;;;;;;;;;;5191516;27;24516;-73
2021/06/29 00:39:58;;;;;;;3.13;1.77;;;;;;;;;;5194488;27;24540;-73
2021/06/29 00:42:52;;;;;;;2.80;2.07;;;;;;;;;;5192929;27;24623;-73
2021/06/29 00:45:47;;;;;;;3.83;2.03;;;;;;;;;;5178526;27;24567;-73
2021/06/29 00:48:41;;;;;;;3.60;2.10;;;;;;;;;;5177393;27;24587;-73
2021/06/29 00:51:34;;;;;;;2.07;1.87;;;;;;;;;;5108860;27;24640;-73
2021/06/29 00:54:30;;;;;;;3.40;2.03;;;;;;;;;;5194397;27;25127;-73
2021/06/29 00:57:23;;;;;;;4.90;1.90;;;;;;;;;;5183751;27;25259;-73
2021/06/29 01:00:29;;;;;;;3.67;2.00;;;;;;;;;;5149753;27;24584;-73
2021/06/29 01:03:22;;;;;;;3.40;2.30;;;;;;;;;;5119927;27;24581;-72
2021/06/29 01:06:17;;;;;;;4.43;2.40;;;;;;;;;;5193038;27;24561;-73
2021/06/29 01:09:12;;;;;;;7.17;2.43;;;;;;;;;;5173464;27;24548;-73
2021/06/29 01:12:02;;;;;;;4.40;2.30;;;;;;;;;;5113127;27;24565;-73
2021/06/29 01:14:59;;;;;;;2.53;2.30;;;;;;;;;;5115272;27;24549;-74
2021/06/29 01:17:54;;;;;;;2.67;2.30;;;;;;;;;;5184345;27;24636;-73
2021/06/29 01:20:54;;;;;;;2.83;2.50;;;;;;;;;;5146539;27;24579;-74
2021/06/29 01:24:08;;;;;;;3.93;2.53;;;;;;;;;;5150813;27;25043;-73
2021/06/29 01:27:17;;;;;;;2.77;2.57;;;;;;;;;;5124553;27;24553;-73
2021/06/29 01:33:08;;;;;;;4.30;3.00;;;;;;;;;;5193712;27;24569;-73
2021/06/29 01:36:03;;;;;;;7.87;2.63;;;;;;;;;;5194463;27;25100;-73
2021/06/29 01:38:57;;;;;;;4.53;2.63;;;;;;;;;;5173517;27;24572;-73
2021/06/29 01:41:51;;;;;;;2.70;2.50;;;;;;;;;;5193509;27;24681;-73
2021/06/29 01:44:45;;;;;;;4.10;2.57;;;;;;;;;;5194476;27;25193;-73
2021/06/29 01:50:37;;;;;;;5.27;3.50;;;;;;;;;;5193627;27;24563;-74
2021/06/29 01:53:45;;;;;;;6.70;3.70;;;;;;;;;;5149585;27;24682;-73
2021/06/29 01:56:51;;;;;;;5.30;3.53;;;;;;;;;;5145023;27;25018;-73
2021/06/29 01:59:48;;;;;;;6.27;3.37;;;;;;;;;;5194501;27;24563;-74
2021/06/29 02:02:42;;;;;;;4.17;2.80;;;;;;;;;;5189866;27;24970;-74
2021/06/29 02:05:37;;;;;;;10.70;3.43;;;;;;;;;;5194336;27;24551;-73
2021/06/29 02:08:44;;;;;;;5.00;3.83;;;;;;;;;;5133146;27;24614;-73
2021/06/29 02:11:40;;;;;;;4.23;3.10;;;;;;;;;;5194199;27;25116;-73
2021/06/29 02:14:34;;;;;;;8.63;3.47;;;;;;;;;;5187754;27;24619;-73
2021/06/29 02:17:30;;;;;;;6.73;2.77;;;;;;;;;;5121572;27;24597;-73
2021/06/29 02:20:38;;;;;;;4.30;3.00;;;;;;;;;;5150179;27;24668;-74
2021/06/29 02:23:32;;;;;;;4.00;3.60;;;;;;;;;;5193768;27;24566;-73
2021/06/29 02:26:26;;;;;;;10.47;3.63;;;;;;;;;;5193484;27;25155;-73
2021/06/29 02:29:21;;;;;;;3.70;3.13;;;;;;;;;;5131983;27;25098;-73
2021/06/29 02:32:20;;;;;;;4.57;3.13;;;;;;;;;;5145969;27;25190;-75
2021/06/29 02:35:14;;;;;;;12.37;3.80;;;;;;;;;;5189075;27;24581;-73
2021/06/29 02:38:08;;;;;;;4.73;3.47;;;;;;;;;;5172280;27;24587;-73
2021/06/29 02:41:03;;;;;;;4.83;3.33;;;;;;;;;;5194327;27;24623;-73
2021/06/29 02:43:57;;;;;;;4.93;3.93;;;;;;;;;;5193052;27;24560;-73
2021/06/29 02:46:51;;;;;;;7.07;4.43;;;;;;;;;;5192661;27;24563;-74
2021/06/29 02:49:45;;;;;;;5.83;4.07;;;;;;;;;;5188241;27;25143;-73
2021/06/29 02:52:40;;;;;;;8.97;3.97;;;;;;;;;;5194488;27;24631;-73
2021/06/29 02:55:39;;;;;;;7.20;4.30;;;;;;;;;;5146834;27;24576;-74
2021/06/29 02:58:32;;;;;;;4.57;4.17;;;;;;;;;;5178464;27;24576;-74
2021/06/29 03:01:36;;;;;;;7.43;5.33;;;;;;;;;;5132794;27;25241;-73
2021/06/29 03:04:31;;;;;;;8.73;5.00;;;;;;;;;;5194491;27;24540;-74
2021/06/29 03:07:25;;;;;;;5.00;4.53;;;;;;;;;;5188626;27;24588;-73
2021/06/29 03:10:30;;;;;;;7.43;4.97;;;;;;;;;;5148853;27;25147;-74
2021/06/29 03:13:24;;;;;;;7.63;4.90;;;;;;;;;;5193209;27;25245;-73
2021/06/29 03:16:18;;;;;;;10.20;5.07;;;;;;;;;;5119004;27;25139;-73
2021/06/29 03:19:08;;;;;;;11.43;5.33;;;;;;;;;;5102393;27;24566;-73
2021/06/29 03:22:04;;;;;;;7.80;4.67;;;;;;;;;;5193910;27;24551;-73
2021/06/29 03:24:58;;;;;;;4.97;4.47;;;;;;;;;;5192960;27;24560;-73
2021/06/29 03:27:54;;;;;;;7.87;5.30;;;;;;;;;;5124797;27;25182;-73
2021/06/29 03:30:48;;;;;;;6.83;5.57;;;;;;;;;;5193283;27;24563;-73
2021/06/29 03:33:51;;;;;;;6.17;5.57;;;;;;;;;;5134019;27;25008;-73
2021/06/29 03:36:44;;;;;;;7.07;6.40;;;;;;;;;;5193383;27;24615;-73
2021/06/29 03:39:38;;;;;;;9.03;5.87;;;;;;;;;;5193827;27;24608;-72
2021/06/29 03:42:33;;;;;;;8.33;6.83;;;;;;;;;;5193927;27;24941;-73
2021/06/29 03:45:27;;;;;;;10.10;6.30;;;;;;;;;;5193447;27;25214;-73
2021/06/29 03:48:21;;;;;;;9.73;6.87;;;;;;;;;;5178869;27;24643;-73
2021/06/29 03:51:17;;;;;;;15.23;7.87;;;;;;;;;;5115297;27;24572;-73
2021/06/29 03:54:08;;;;;;;7.33;6.63;;;;;;;;;;5122639;27;24996;-73
2021/06/29 03:57:11;;;;;;;10.67;7.43;;;;;;;;;;5133450;27;24585;-73
2021/06/29 04:00:11;;;;;;;12.87;6.23;;;;;;;;;;5144469;27;25140;-74
2021/06/29 04:03:05;;;;;;;7.97;6.70;;;;;;;;;;5145592;22;24716;-74
2021/06/29 04:06:04;;;;;;;8.17;6.60;;;;;;;;;;5141303;27;25268;-75
2021/06/29 04:08:59;;;;;;;9.83;5.73;;;;;;;;;;5174900;27;24576;-74
2021/06/29 04:12:01;;;;;;;8.93;5.80;;;;;;;;;;5132706;27;24581;-73
2021/06/29 04:14:55;;;;;;;8.73;5.93;;;;;;;;;;5189714;27;24556;-73
2021/06/29 04:17:49;;;;;;;9.37;5.57;;;;;;;;;;5181109;27;24612;-74
2021/06/29 04:20:43;;;;;;;6.57;4.73;;;;;;;;;;5180782;27;24556;-74
2021/06/29 04:23:39;;;;;;;5.77;4.67;;;;;;;;;;5181966;27;24569;-74
2021/06/29 04:26:34;;;;;;;7.03;4.07;;;;;;;;;;5189510;27;24564;-74
2021/06/29 04:29:30;;;;;;;4.17;3.77;;;;;;;;;;5127160;27;24572;-74
2021/06/29 04:32:22;;;;;;;4.17;3.77;;;;;;;;;;5101200;27;24594;-74
2021/06/29 04:35:12;;;;;;;3.93;3.57;;;;;;;;;;5118249;27;24553;-73
2021/06/29 04:38:06;;;;;;;4.73;3.53;;;;;;;;;;5104591;27;24602;-74
2021/06/29 04:41:12;;;;;;;4.53;3.63;;;;;;;;;;5145747;27;24588;-74
2021/06/29 04:44:06;;;;;;;5.43;3.23;;;;;;;;;;5192182;27;24568;-74
2021/06/29 04:47:01;;;;;;;5.40;3.20;;;;;;;;;;5184230;27;24604;-73
2021/06/29 04:49:56;;;;;;;4.10;3.40;;;;;;;;;;5194444;27;24574;-74
2021/06/29 04:52:51;;;;;;;6.23;3.17;;;;;;;;;;5193820;27;25205;-73
2021/06/29 04:55:43;;;;;;;3.93;2.63;;;;;;;;;;5121785;27;24553;-74
2021/06/29 04:58:34;;;;;;;7.13;3.37;;;;;;;;;;5107159;27;24574;-74
2021/06/29 05:01:29;;;;;;;3.53;2.87;;;;;;;;;;5194436;27;24536;-74
2021/06/29 05:04:29;;;;;;;3.93;2.90;;;;;;;;;;5145607;27;25165;-73
2021/06/29 05:07:23;;;;;;;3.77;2.80;;;;;;;;;;5171935;27;24599;-73
2021/06/29 05:10:17;;;;;;;4.73;2.77;;;;;;;;;;5194476;27;24551;-73
2021/06/29 05:13:12;;;;;;;2.73;2.47;;;;;;;;;;5183157;27;24580;-73
2021/06/29 05:16:06;;;;;;;3.27;2.47;;;;;;;;;;5180936;27;24620;-74
2021/06/29 05:19:00;;;;;;;4.20;2.20;;;;;;;;;;5174855;27;24694;-73
2021/06/29 05:21:54;;;;;;;6.20;2.20;;;;;;;;;;5179116;27;24560;-74
2021/06/29 05:24:48;;;;;;;4.47;2.63;;;;;;;;;;5193471;27;24552;-73
2021/06/29 05:27:42;;;;;;;2.53;2.33;;;;;;;;;;5185025;27;24652;-73
2021/06/29 05:30:37;;;;;;;7.70;2.10;;;;;;;;;;5192929;27;25076;-73
2021/06/29 05:33:31;;;;;;;4.87;2.50;;;;;;;;;;5194405;27;24552;-73
2021/06/29 05:36:25;;;;;;;4.63;2.30;;;;;;;;;;5193557;27;24580;-73
2021/06/29 05:39:31;;;;;;;2.53;2.20;;;;;;;;;;5128457;27;25075;-73
2021/06/29 05:42:25;;;;;;;4.10;2.30;;;;;;;;;;5193918;27;24974;-73
2021/06/29 05:45:34;;;;;;;3.47;2.20;;;;;;;;;;5150119;27;24654;-74
2021/06/29 05:48:27;;;;;;;5.10;2.67;;;;;;;;;;5108561;27;24566;-73
2021/06/29 05:51:22;;;;;;;4.30;2.20;;;;;;;;;;5193225;27;24571;-74
2021/06/29 05:54:17;;;;;;;4.53;1.80;;;;;;;;;;5193850;27;24571;-73
2021/06/29 05:57:13;;;;;;;3.07;1.97;;;;;;;;;;5119200;27;25036;-74
2021/06/29 06:00:19;;;;;;;3.83;2.00;;;;;;;;;;5127736;27;24695;-73
2021/06/29 06:03:14;;;;;;;2.87;2.23;;;;;;;;;;5193614;27;24559;-73
2021/06/29 06:06:08;;;;;;;4.50;2.30;;;;;;;;;;5120306;27;24581;-74
2021/06/29 06:09:03;;;;;;;2.10;1.80;;;;;;;;;;5168067;27;24573;-73
2021/06/29 06:11:58;;;;;;;2.30;2.03;;;;;;;;;;5192792;27;24544;-73
2021/06/29 06:14:52;;;;;;;2.23;2.03;;;;;;;;;;5183461;27;25122;-73
2021/06/29 06:18:05;;;;;;;3.27;1.97;;;;;;;;;;5139049;27;24611;-73
2021/06/29 06:20:59;;;;;;;4.30;2.20;;;;;;;;;;5194053;27;24571;-73
2021/06/29 06:24:08;;;;;;;5.70;1.93;;;;;;;;;;5149371;27;24580;-74
2021/06/29 06:27:02;;;;;;;2.90;2.10;;;;;;;;;;5190029;27;24615;-73
2021/06/29 06:29:55;;;;;;;3.53;2.23;;;;;;;;;;5119993;27;25139;-74
2021/06/29 06:32:49;;;;;;;6.00;1.77;;;;;;;;;;5194525;27;24997;-74
2021/06/29 06:35:49;;;;;;;3.60;2.10;;;;;;;;;;5153574;27;25013;-74
2021/06/29 06:38:43;;;;;;;6.37;2.30;;;;;;;;;;5176937;27;25262;-74
2021/06/29 06:41:38;;;;;;;2.77;2.40;;;;;;;;;;5194040;27;25139;-74
2021/06/29 06:44:32;;;;;;;3.63;2.43;;;;;;;;;;5194390;27;24548;-74
2021/06/29 06:47:26;;;;;;;5.97;2.80;;;;;;;;;;5188458;27;24584;-73
2021/06/29 06:50:32;;;;;;;2.67;2.40;;;;;;;;;;5149850;27;24567;-74
2021/06/29 06:53:25;;;;;;;7.30;2.70;;;;;;;;;;5120316;27;25119;-74
2021/06/29 06:56:19;;;;;;;2.67;2.00;;;;;;;;;;5126734;27;24569;-74
2021/06/29 06:59:12;;;;;;;4.67;2.70;;;;;;;;;;5173334;27;24627;-73
2021/06/29 07:02:06;;;;;;;4.80;2.63;;;;;;;;;;5120540;27;24569;-74
2021/06/29 07:05:01;;;;;;;2.73;2.17;;;;;;;;;;5193976;27;24556;-74
2021/06/29 07:07:55;;;;;;;5.93;2.60;;;;;;;;;;5184072;27;24581;-74
2021/06/29 07:10:53;;;;;;;4.10;2.67;;;;;;;;;;5194367;27;24558;-73
2021/06/29 07:13:47;;;;;;;4.40;2.70;;;;;;;;;;5194195;27;24677;-73
2021/06/29 07:16:42;;;;;;;2.93;2.37;;;;;;;;;;5194472;27;24556;-74
2021/06/29 07:19:40;;;;;;;6.57;2.67;;;;;;;;;;5145387;27;24581;-74
2021/06/29 07:22:18;;;;;;;2.70;2.50;;;;;;;;;;5111141;27;20808;-74
2021/06/29 07:24:55;;;;;;;2.40;2.20;;;;;;;;;;5111866;27;20799;-74
2021/06/29 07:27:32;;;;;;;2.70;2.50;;;;;;;;;;5111047;27;21396;-74
2021/06/29 07:30:09;;;;;;;2.43;2.20;;;;;;;;;;5111853;27;20819;-73
2021/06/29 07:32:47;;;;;;;3.93;2.53;;;;;;;;;;5132382;27;20867;-74
2021/06/29 07:35:23;;;;;;;3.03;2.20;;;;;;;;;;5111348;27;20792;-73
2021/06/29 07:38:00;;;;;;;3.23;2.90;;;;;;;;;;5111826;27;21199;-73
2021/06/29 07:40:37;;;;;;;4.60;2.80;;;;;;;;;;5131799;27;20832;-73
2021/06/29 07:43:13;;;;;;;6.43;3.37;;;;;;;;;;5111844;27;20792;-73
2021/06/29 07:45:50;;;;;;;3.70;2.50;;;;;;;;;;5071257;28;21194;-74
2021/06/29 07:48:26;;;;;;;4.33;2.50;;;;;;;;;;5071263;28;20810;-73
2021/06/29 07:51:05;;;;;;;3.67;2.40;;;;;;;;;;5111389;27;20799;-74
2021/06/29 07:53:43;;;;;;;5.67;2.30;;;;;;;;;;5111873;27;20792;-74
2021/06/29 07:56:19;;;;;;;4.23;1.97;;;;;;;;;;5111473;27;20812;-73
2021/06/29 07:58:56;;;;;;;3.10;2.03;;;;;;;;;;5173640;27;20902;-73
2021/06/29 08:01:32;;;;;;;2.20;2.00;;;;;;;;;;5071260;28;20807;-74
2021/06/29 08:04:09;;;;;;;2.77;1.90;;;;;;;;;;5111860;27;21458;-74
2021/06/29 08:06:46;;;;;;;4.90;2.00;;;;;;;;;;5111333;27;20857;-73
2021/06/29 08:09:22;;;;;;;2.77;1.97;;;;;;;;;;5111845;27;20795;-74
2021/06/29 08:11:59;;;;;;;7.90;2.07;;;;;;;;;;5111272;27;21249;-74
2021/06/29 08:14:36;;;;;;;1.90;1.70;;;;;;;;;;5084774;28;20833;-74
2021/06/29 08:17:14;;;;;;;2.93;2.10;;;;;;;;;;5111651;27;20834;-74
2021/06/29 08:19:51;;;;;;;2.00;1.80;;;;;;;;;;5111167;27;20830;-74
2021/06/29 08:22:28;;;;;;;1.77;1.67;;;;;;;;;;5111834;27;21444;-74
2021/06/29 08:25:06;;;;;;;1.87;1.70;;;;;;;;;;5111842;27;21163;-74
2021/06/29 08:27:43;;;;;;;2.80;1.60;;;;;;;;;;5111491;27;21285;-74
2021/06/29 08:30:21;;;;;;;4.63;1.57;;;;;;;;;;5071246;28;20870;-74
2021/06/29 08:32:59;;;;;;;1.80;1.60;;;;;;;;;;5111888;27;20865;-74
2021/06/29 08:35:35;;;;;;;2.22;1.65;;;;;;;;;;5111187;27;20804;-74
2021/06/29 08:38:12;;;;;;;2.33;1.40;;;;;;;;;;5070736;28;21253;-74
2021/06/29 08:40:50;;;;;;;2.45;1.60;;;;;;;;;;5111744;27;21387;-74
2021/06/29 08:43:28;;;;;;;4.93;1.90;;;;;;;;;;5110861;27;20859;-74
2021/06/29 08:46:05;;;;;;;3.13;1.80;;;;;;;;;;5084358;28;20806;-74
2021/06/29 08:48:41;;;;;;;2.00;1.67;;;;;;;;;;5114109;27;20831;-74
2021/06/29 08:51:18;;;;;;;2.33;1.52;;;;;;;;;;5115054;27;21265;-74
2021/06/29 08:53:54;;;;;;;2.08;1.42;;;;;;;;;;5086729;28;20807;-74
2021/06/29 08:56:32;;;;;;;5.00;1.50;;;;;;;;;;5131629;27;20804;-74
2021/06/29 08:59:09;;;;;;;4.03;1.40;;;;;;;;;;5110119;27;20863;-73
2021/06/29 09:01:46;;;;;;;2.13;1.17;;;;;;;;;;5071037;28;20824;-74
2021/06/29 09:04:50;;;;;;;1.90;1.45;;;;;;;;;;5110889;27;20816;-74
2021/06/29 09:07:30;;;;;;;2.55;1.25;;;;;;;;;;5104604;27;20838;-74
2021/06/29 09:10:10;;;;;;;2.15;1.58;;;;;;;;;;5070850;28;20809;-74
2021/06/29 09:12:49;;;;;;;1.13;0.90;;;;;;;;;;5110926;27;20836;-74
2021/06/29 09:15:42;;;;;;;3.65;1.65;;;;;;;;;;5070632;28;20895;-74
2021/06/29 09:18:27;;;;;;;3.17;1.60;;;;;;;;;;5049948;28;20868;-73
2021/06/29 09:21:12;;;;;;;1.70;1.15;;;;;;;;;;5109495;27;21226;-73
2021/06/29 09:23:52;;;;;;;3.42;1.40;;;;;;;;;;5111442;27;20803;-73
2021/06/29 09:26:29;;;;;;;2.05;1.30;;;;;;;;;;5152612;27;20837;-74
2021/06/29 09:29:07;;;;;;;3.65;1.30;;;;;;;;;;5111735;27;21258;-74
2021/06/29 09:31:45;;;;;;;2.20;1.50;;;;;;;;;;5070925;28;20823;-73
2021/06/29 09:34:28;;;;;;;2.60;1.55;;;;;;;;;;5111329;27;20820;-73
2021/06/29 09:37:24;;;;;;;2.00;1.35;;;;;;;;;;5071147;28;20833;-74
2021/06/29 09:40:15;;;;;;;7.00;4.05;;;;;;;;;;5110998;27;20823;-73
2021/06/29 09:42:52;;;;;;;2.55;1.58;;;;;;;;;;5070671;28;21281;-73
2021/06/29 09:45:31;;;;;;;1.35;1.08;;;;;;;;;;5131135;27;20883;-73
2021/06/29 09:48:09;;;;;;;1.77;1.00;;;;;;;;;;5110765;27;20836;-73
2021/06/29 09:50:49;;;;;;;2.55;1.20;;;;;;;;;;5070232;28;20853;-73
2021/06/29 09:53:31;;;;;;;1.20;1.10;;;;;;;;;;5070511;28;20807;-73
2021/06/29 09:56:16;;;;;;;1.52;1.33;;;;;;;;;;5111219;27;21405;-74
2021/06/29 09:58:56;;;;;;;3.00;1.27;;;;;;;;;;5071241;28;20837;-74
2021/06/29 10:01:33;;;;;;;1.58;1.20;;;;;;;;;;5070329;28;20826;-73
2021/06/29 10:04:10;;;;;;;1.83;1.42;;;;;;;;;;5124134;22;21538;-76
2021/06/29 10:06:48;;;;;;;2.25;1.10;;;;;;;;;;5070117;28;21408;-75
2021/06/29 10:09:25;;;;;;;1.30;1.05;;;;;;;;;;5110668;27;21408;-75
2021/06/29 10:12:02;;;;;;;2.35;1.10;;;;;;;;;;5070472;28;20827;-75
2021/06/29 10:14:38;;;;;;;1.52;1.15;;;;;;;;;;5111885;27;20804;-74
2021/06/29 10:17:15;;;;;;;4.30;1.02;;;;;;;;;;5106582;27;20895;-74
2021/06/29 10:22:48;;;;;;;4.20;1.30;;;;;;;;;;5129922;27;20840;-75
2021/06/29 10:25:25;;;;;;;1.75;1.05;;;;;;;;;;5077445;28;20805;-75
2021/06/29 10:28:02;;;;;;;4.32;1.08;;;;;;;;;;5071163;28;20854;-75
2021/06/29 10:30:41;;;;;;;1.17;0.90;;;;;;;;;;5110696;27;20808;-75
2021/06/29 10:33:19;;;;;;;3.92;1.00;;;;;;;;;;5110792;27;20842;-75
2021/06/29 10:35:57;;;;;;;1.65;0.90;;;;;;;;;;5111989;27;20796;-75
2021/06/29 10:38:34;;;;;;;1.65;1.02;;;;;;;;;;5041135;28;20851;-75
2021/06/29 10:41:11;;;;;;;3.22;1.30;;;;;;;;;;5070505;28;20818;-75
2021/06/29 10:43:50;;;;;;;1.98;1.25;;;;;;;;;;5070617;28;20823;-76
2021/06/29 10:46:29;;;;;;;1.75;1.05;;;;;;;;;;5070574;28;20811;-74
2021/06/29 10:49:28;;;;;;;1.20;0.80;;;;;;;;;;5085572;28;20847;-75
2021/06/29 10:52:32;;;;;;;1.45;1.00;;;;;;;;;;5055558;28;20906;-75
2021/06/29 10:55:17;;;;;;;1.90;1.00;;;;;;;;;;5070126;28;20856;-74
2021/06/29 10:57:57;;;;;;;2.35;1.20;;;;;;;;;;5100340;27;20825;-75
2021/06/29 11:00:35;;;;;;;2.25;0.98;;;;;;;;;;5111089;27;20893;-75
2021/06/29 11:03:11;;;;;;;1.52;1.25;;;;;;;;;;5111201;27;20842;-75
2021/06/29 11:06:00;;;;;;;1.20;1.08;;;;;;;;;;5111853;27;21385;-75
2021/06/29 11:08:47;;;;;;;2.90;1.13;;;;;;;;;;5096047;27;20863;-74
2021/06/29 11:11:25;;;;;;;1.70;1.00;;;;;;;;;;5110936;27;20823;-75
2021/06/29 11:14:02;;;;;;;3.05;1.10;;;;;;;;;;5111921;27;20804;-74
2021/06/29 11:16:56;;;;;;;1.63;0.90;;;;;;;;;;5071300;28;20800;-74
2021/06/29 11:20:04;;;;;;;2.33;0.90;;;;;;;;;;5111400;27;20870;-74
2021/06/29 11:22:59;;;;;;;3.00;1.00;;;;;;;;;;5111793;27;20844;-74
2021/06/29 11:25:55;;;;;;;1.85;0.93;;;;;;;;;;5111241;27;21282;-75
2021/06/29 11:28:36;;;;;;;2.78;0.90;;;;;;;;;;5110838;27;20846;-74
2021/06/29 11:31:29;;;;;;;2.35;0.95;;;;;;;;;;5111502;27;20857;-75
2021/06/29 11:34:08;;;;;;;1.60;1.05;;;;;;;;;;5070181;28;20819;-75
2021/06/29 11:36:50;;;;;;;2.60;0.90;;;;;;;;;;5110816;27;20819;-76
2021/06/29 11:39:31;;;;;;;1.35;0.90;;;;;;;;;;5123144;27;20794;-75
2021/06/29 11:42:10;;;;;;;5.03;1.15;;;;;;;;;;5110782;27;21347;-76
2021/06/29 11:44:50;;;;;;;12.48;1.75;;;;;;;;;;5110404;27;20804;-75
2021/06/29 11:47:37;;;;;;;2.78;0.85;;;;;;;;;;5069956;28;21291;-75
2021/06/29 11:50:19;;;;;;;1.05;0.80;;;;;;;;;;5070473;28;20921;-75
2021/06/29 11:53:00;;;;;;;2.15;0.70;;;;;;;;;;5070794;28;20823;-75
2021/06/29 11:55:39;;;;;;;2.58;0.85;;;;;;;;;;5110373;27;20819;-76
2021/06/29 11:58:15;;;;;;;2.80;0.90;;;;;;;;;;5060988;28;20833;-75
2021/06/29 12:00:51;;;;;;;2.40;1.00;;;;;;;;;;5069781;28;21400;-75
2021/06/29 12:03:29;;;;;;;0.93;0.80;;;;;;;;;;4832359;27;6739799;-75
2021/06/29 12:06:16;;;;;;;2.28;0.90;;;;;;;;;;5071034;28;20833;-75
2021/06/29 12:08:59;;;;;;;1.00;0.80;;;;;;;;;;5070589;28;20833;-75
2021/06/29 12:11:35;;;;;;;2.35;0.90;;;;;;;;;;5111484;27;20792;-75
2021/06/29 12:14:19;;;;;;;1.60;0.80;;;;;;;;;;5111923;27;20800;-75
2021/06/29 12:16:59;;;;;;;1.52;0.80;;;;;;;;;;5111888;27;20861;-75
2021/06/29 12:19:35;;;;;;;0.82;0.77;;;;;;;;;;5071107;28;20825;-75
2021/06/29 12:22:12;;;;;;;1.92;0.98;;;;;;;;;;5111850;27;20800;-75
2021/06/29 12:24:48;;;;;;;1.30;1.00;;;;;;;;;;5071307;28;21372;-75
2021/06/29 12:27:25;;;;;;;3.83;1.20;;;;;;;;;;5111050;27;20842;-75
2021/06/29 12:30:56;;;;;;;2.92;1.10;;;;;;;;;;5111870;27;20830;-75
2021/06/29 12:33:42;;;;;;;1.30;0.77;;;;;;;;;;5091301;27;21371;-76
2021/06/29 12:36:23;;;;;;;1.95;0.90;;;;;;;;;;5111338;27;21290;-75
2021/06/29 12:39:01;;;;;;;1.95;1.15;;;;;;;;;;5070472;28;20812;-75
2021/06/29 12:41:41;;;;;;;4.20;1.25;;;;;;;;;;5111363;27;20833;-75
2021/06/29 12:44:18;;;;;;;1.92;1.00;;;;;;;;;;5111903;27;20804;-75
2021/06/29 12:46:55;;;;;;;2.63;1.00;;;;;;;;;;5071196;28;20808;-75
2021/06/29 12:49:35;;;;;;;1.65;0.80;;;;;;;;;;5070975;28;21255;-74
2021/06/29 12:52:14;;;;;;;3.65;1.27;;;;;;;;;;5071336;28;20788;-75
2021/06/29 12:55:03;;;;;;;4.35;0.95;;;;;;;;;;5071302;28;20865;-75
2021/06/29 12:57:40;;;;;;;4.57;0.90;;;;;;;;;;5071093;28;20808;-75
2021/06/29 13:00:17;;;;;;;3.67;1.15;;;;;;;;;;5111925;27;21380;-75
2021/06/29 13:02:54;;;;;;;0.85;0.82;;;;;;;;;;5111933;27;21255;-75
2021/06/29 13:05:37;;;;;;;1.27;0.90;;;;;;;;;;5070947;28;20815;-75
2021/06/29 13:08:17;;;;;;;2.35;1.20;;;;;;;;;;5140386;27;21449;-75
2021/06/29 13:10:55;;;;;;;2.40;0.82;;;;;;;;;;5111685;27;20845;-75
2021/06/29 13:13:31;;;;;;;2.17;1.10;;;;;;;;;;5111985;27;20857;-75
2021/06/29 13:16:19;;;;;;;2.05;0.85;;;;;;;;;;5071395;28;20807;-75
2021/06/29 13:18:57;;;;;;;2.53;0.77;;;;;;;;;;5111079;27;20826;-75
2021/06/29 13:21:36;;;;;;;1.98;0.90;;;;;;;;;;5111333;27;20844;-75
2021/06/29 13:24:14;;;;;;;0.93;0.80;;;;;;;;;;5111309;27;21397;-75
2021/06/29 13:26:54;;;;;;;3.03;0.80;;;;;;;;;;5110568;27;20820;-75
2021/06/29 13:29:37;;;;;;;1.45;1.00;;;;;;;;;;5111046;27;21469;-75
2021/06/29 13:32:19;;;;;;;2.78;1.10;;;;;;;;;;5131419;27;20848;-75
2021/06/29 13:35:22;;;;;;;0.70;0.70;;;;;;;;;;5111887;27;20834;-75
2021/06/29 13:38:00;;;;;;;3.45;1.02;;;;;;;;;;5111715;27;20862;-75
2021/06/29 13:40:43;;;;;;;2.83;1.00;;;;;;;;;;5070734;28;20811;-75
2021/06/29 13:43:23;;;;;;;2.10;1.17;;;;;;;;;;5110509;27;21272;-75
2021/06/29 13:46:11;;;;;;;1.55;1.00;;;;;;;;;;5128040;27;20799;-75
2021/06/29 13:48:47;;;;;;;1.13;1.00;;;;;;;;;;5096532;27;20867;-74
2021/06/29 13:51:24;;;;;;;4.30;0.85;;;;;;;;;;5007728;28;20877;-75
2021/06/29 13:54:22;;;;;;;2.03;1.10;;;;;;;;;;5106333;27;20859;-76
2021/06/29 13:56:59;;;;;;;6.50;1.55;;;;;;;;;;5105978;27;20873;-75
2021/06/29 13:59:38;;;;;;;1.33;1.00;;;;;;;;;;5062736;28;20833;-75
2021/06/29 14:02:27;;;;;;;3.70;1.02;;;;;;;;;;5107531;27;20877;-74
2021/06/29 14:05:04;;;;;;;2.25;1.10;;;;;;;;;;5067101;28;21388;-75
2021/06/29 14:07:40;;;;;;;1.88;1.10;;;;;;;;;;5066934;28;20864;-75
2021/06/29 14:10:28;;;;;;;3.80;1.13;;;;;;;;;;5107532;27;20819;-75
2021/06/29 14:13:05;;;;;;;2.00;1.27;;;;;;;;;;5066726;28;20818;-76
2021/06/29 14:15:42;;;;;;;1.98;1.20;;;;;;;;;;5107613;27;20847;-75
2021/06/29 14:18:21;;;;;;;12.70;1.85;;;;;;;;;;5101964;27;20837;-75
2021/06/29 14:21:00;;;;;;;3.35;1.33;;;;;;;;;;5003760;28;20860;-75
2021/06/29 14:23:38;;;;;;;1.20;1.10;;;;;;;;;;5104042;27;20828;-75
2021/06/29 14:26:16;;;;;;;2.45;1.20;;;;;;;;;;5063227;28;20833;-74
2021/06/29 14:28:53;;;;;;;1.85;1.10;;;;;;;;;;5096819;27;20830;-75
2021/06/29 14:31:30;;;;;;;2.45;1.35;;;;;;;;;;5063026;27;20801;-75
2021/06/29 14:34:07;;;;;;;2.25;1.20;;;;;;;;;;5107399;27;20898;-75
2021/06/29 14:36:44;;;;;;;2.60;1.40;;;;;;;;;;5066860;28;20836;-75
2021/06/29 14:39:20;;;;;;;4.75;2.42;;;;;;;;;;5107215;27;20848;-75
2021/06/29 14:41:57;;;;;;;8.18;1.88;;;;;;;;;;5107206;27;20820;-76
2021/06/29 14:44:33;;;;;;;6.72;1.60;;;;;;;;;;5082127;28;20846;-76
2021/06/29 14:47:10;;;;;;;2.50;1.27;;;;;;;;;;5066192;28;20843;-75
2021/06/29 14:49:47;;;;;;;3.47;1.30;;;;;;;;;;5066867;28;20877;-75
2021/06/29 14:52:23;;;;;;;1.27;1.17;;;;;;;;;;5086926;27;20808;-75
2021/06/29 14:55:00;;;;;;;1.20;1.10;;;;;;;;;;5107489;27;21467;-75
2021/06/29 14:57:37;;;;;;;1.90;1.03;;;;;;;;;;5060013;28;20898;-74
2021/06/29 15:00:20;;;;;;;3.03;1.20;;;;;;;;;;5106439;27;20841;-75
2021/06/29 15:03:11;;;;;;;1.93;1.20;;;;;;;;;;5107358;27;20847;-74
2021/06/29 15:05:47;;;;;;;3.27;1.50;;;;;;;;;;5156928;27;20818;-75
2021/06/29 15:08:24;;;;;;;1.67;1.40;;;;;;;;;;5107421;27;20867;-75
2021/06/29 15:11:00;;;;;;;3.17;1.60;;;;;;;;;;5107493;27;20825;-76
2021/06/29 15:13:37;;;;;;;6.60;1.00;;;;;;;;;;5069950;28;21235;-76
2021/06/29 15:16:14;;;;;;;11.50;0.93;;;;;;;;;;5107954;27;21465;-77
2021/06/29 15:18:52;;;;;;;5.30;0.60;;;;;;;;;;5066359;28;20838;-76
2021/06/29 15:21:31;;;;;;;5.17;0.90;;;;;;;;;;5066398;28;20873;-75
2021/06/29 15:24:08;;;;;;;4.80;0.93;;;;;;;;;;5106764;27;20838;-75
2021/06/29 15:26:47;;;;;;;5.77;1.10;;;;;;;;;;5066861;28;21269;-75
2021/06/29 15:29:25;;;;;;;6.73;1.50;;;;;;;;;;5065824;28;20845;-77
2021/06/29 15:32:02;;;;;;;8.40;1.30;;;;;;;;;;5066264;28;20872;-77
2021/06/29 15:34:39;;;;;;;4.00;1.30;;;;;;;;;;5083912;28;20817;-77
2021/06/29 15:37:17;;;;;;;5.40;1.10;;;;;;;;;;5099625;27;20877;-76
2021/06/29 15:39:54;;;;;;;4.40;1.20;;;;;;;;;;5091680;27;20854;-75
2021/06/29 15:42:32;;;;;;;4.63;1.30;;;;;;;;;;5051938;28;20824;-74
2021/06/29 15:45:13;;;;;;;9.43;1.17;;;;;;;;;;5067062;28;21461;-74
2021/06/29 15:47:51;;;;;;;6.80;1.00;;;;;;;;;;5057190;28;20848;-74
2021/06/29 15:50:27;;;;;;;2.87;1.17;;;;;;;;;;5107033;27;20846;-75
2021/06/29 15:53:04;;;;;;;2.47;1.10;;;;;;;;;;5106790;27;20847;-75
2021/06/29 15:55:40;;;;;;;4.60;1.53;;;;;;;;;;5107751;27;21415;-75
2021/06/29 15:58:18;;;;;;;2.10;1.00;;;;;;;;;;5127992;27;20838;-76
2021/06/29 16:00:55;;;;;;;3.83;0.90;;;;;;;;;;5106506;27;20815;-77
2021/06/29 16:03:32;;;;;;;0.90;0.80;;;;;;;;;;5067071;28;20799;-77
2021/06/29 16:06:08;;;;;;;1.90;1.00;;;;;;;;;;5066803;28;20892;-76
2021/06/29 16:08:45;;;;;;;5.23;0.93;;;;;;;;;;5106203;27;20829;-76
2021/06/29 16:11:23;;;;;;;3.33;0.90;;;;;;;;;;5066082;28;20822;-76
2021/06/29 16:14:00;;;;;;;8.83;3.93;;;;;;;;;;5066388;28;20811;-77
2021/06/29 16:16:38;;;;;;;1.67;1.10;;;;;;;;;;5066041;28;20845;-76
2021/06/29 16:19:14;;;;;;;4.97;1.10;;;;;;;;;;5023330;27;21263;-77
2021/06/29 16:21:53;;;;;;;0.83;0.70;;;;;;;;;;5086895;27;20788;-75
2021/06/29 16:24:34;;;;;;;2.97;1.10;;;;;;;;;;5106988;27;20811;-76
2021/06/29 16:27:12;;;;;;;3.03;1.40;;;;;;;;;;5107047;27;20857;-76
2021/06/29 16:29:49;;;;;;;2.97;0.90;;;;;;;;;;5106999;27;20820;-76
2021/06/29 16:32:25;;;;;;;2.60;1.10;;;;;;;;;;5067069;28;21423;-77
2021/06/29 16:35:04;;;;;;;3.83;0.77;;;;;;;;;;5107788;27;20945;-76
2021/06/29 16:37:43;;;;;;;3.77;1.00;;;;;;;;;;5059273;28;21430;-77
2021/06/29 16:40:20;;;;;;;0.93;0.70;;;;;;;;;;5048843;28;20819;-77
2021/06/29 16:42:57;;;;;;;2.93;1.40;;;;;;;;;;5066899;28;20864;-77
2021/06/29 16:45:33;;;;;;;3.23;0.97;;;;;;;;;;5067372;28;21272;-77
2021/06/29 16:48:24;;;;;;;2.20;0.80;;;;;;;;;;5105613;27;20884;-77